Time;durP1;ratioP1;P1;durP2;ratioP2;P2;SDS_P1;SDS_P2;PMS_P1;PMS_P2;Temp;Humidity;BMP_temperature;BMP_pressure;BME280_temperature;BME280_humidity;BME280_pressure;Samples;Min_cycle;Max_cycle;Signal;HPM_P1;HPM_P2
2021/09/27 00:01:37;;;;;;;25.70;17.20;;;16.10;46.80;;;;;;5037466;28;20034;-71
2021/09/27 00:04:09;;;;;;;21.42;15.93;;;16.00;46.60;;;;;;5044273;28;20060;-69
2021/09/27 00:06:39;;;;;;;22.00;15.77;;;16.00;46.70;;;;;;5037956;28;20045;-70
2021/09/27 00:09:10;;;;;;;20.20;15.40;;;16.00;46.60;;;;;;4997697;28;20056;-70
2021/09/27 00:11:39;;;;;;;21.88;15.38;;;16.00;47.00;;;;;;5050521;28;20447;-71
2021/09/27 00:14:07;;;;;;;20.00;15.63;;;15.90;47.90;;;;;;5044846;28;20596;-71
2021/09/27 00:16:42;;;;;;;20.02;15.75;;;15.90;47.90;;;;;;5034866;28;20057;-70
2021/09/27 00:19:12;;;;;;;22.30;15.80;;;15.90;48.20;;;;;;5000655;28;20072;-71
2021/09/27 00:21:42;;;;;;;19.02;15.70;;;15.90;48.60;;;;;;5040732;28;20516;-70
2021/09/27 00:24:15;;;;;;;21.05;15.40;;;15.80;48.80;;;;;;5037489;28;20029;-70
2021/09/27 00:26:49;;;;;;;19.83;15.63;;;15.90;49.00;;;;;;5031350;28;20553;-70
2021/09/27 00:29:17;;;;;;;19.52;15.52;;;15.80;49.10;;;;;;5041995;28;20048;-69
2021/09/27 00:31:46;;;;;;;19.50;15.30;;;15.80;49.40;;;;;;5037006;28;20041;-69
2021/09/27 00:34:18;;;;;;;19.52;15.13;;;15.80;49.70;;;;;;5037830;28;20599;-70
2021/09/27 00:36:51;;;;;;;20.40;15.40;;;15.70;50.20;;;;;;5044600;28;20068;-70
2021/09/27 00:39:23;;;;;;;22.27;16.52;;;15.70;50.40;;;;;;5034662;28;20076;-71
2021/09/27 00:41:51;;;;;;;20.75;15.80;;;15.70;51.10;;;;;;5034660;28;20098;-69
2021/09/27 00:44:20;;;;;;;23.50;17.17;;;15.70;51.10;;;;;;5043514;28;20040;-70
2021/09/27 00:46:53;;;;;;;21.52;16.10;;;15.70;50.90;;;;;;5038064;28;20037;-70
2021/09/27 00:49:24;;;;;;;23.85;17.35;;;15.60;50.60;;;;;;4997459;28;20045;-70
2021/09/27 00:52:03;;;;;;;20.63;16.20;;;15.60;51.30;;;;;;5040383;28;20053;-69
2021/09/27 00:54:34;;;;;;;20.63;16.38;;;15.60;51.60;;;;;;5040212;28;20041;-69
2021/09/27 00:57:12;;;;;;;23.10;16.60;;;15.60;51.60;;;;;;5038432;28;20041;-70
2021/09/27 00:59:42;;;;;;;21.73;16.98;;;15.60;52.40;;;;;;5035148;28;20103;-70
2021/09/27 01:02:11;;;;;;;23.38;16.52;;;15.60;51.50;;;;;;5042972;28;20064;-70
2021/09/27 01:04:43;;;;;;;25.60;18.98;;;15.50;51.50;;;;;;5038897;28;20041;-70
2021/09/27 01:07:20;;;;;;;22.10;16.42;;;15.60;51.50;;;;;;5040094;28;20095;-70
2021/09/27 01:10:16;;;;;;;24.40;17.75;;;15.60;51.70;;;;;;5018695;28;20096;-70
2021/09/27 01:13:11;;;;;;;23.70;16.75;;;15.50;51.60;;;;;;5042744;28;20045;-69
2021/09/27 01:15:53;;;;;;;21.40;16.20;;;15.50;51.90;;;;;;5041450;28;20047;-69
2021/09/27 01:18:33;;;;;;;23.08;16.77;;;15.40;52.20;;;;;;5043377;28;20132;-70
2021/09/27 01:21:17;;;;;;;22.42;16.88;;;15.40;52.20;;;;;;5038853;28;20193;-69
2021/09/27 01:24:16;;;;;;;23.02;16.38;;;15.40;52.50;;;;;;5047057;28;20045;-71
2021/09/27 01:27:21;;;;;;;25.50;17.92;;;15.40;52.70;;;;;;5034451;28;20041;-70
2021/09/27 01:30:04;;;;;;;22.92;16.63;;;15.40;52.90;;;;;;5037856;28;20053;-69
2021/09/27 01:32:38;;;;;;;23.27;17.77;;;15.40;52.90;;;;;;5025029;28;20251;-70
2021/09/27 01:35:17;;;;;;;20.73;16.25;;;15.30;52.90;;;;;;5038183;28;20468;-70
2021/09/27 01:38:03;;;;;;;23.73;16.95;;;15.20;53.30;;;;;;5044112;28;20045;-70
2021/09/27 01:40:41;;;;;;;23.52;16.65;;;15.20;53.60;;;;;;5028664;28;20057;-70
2021/09/27 01:43:18;;;;;;;22.88;16.73;;;15.20;53.90;;;;;;5038199;28;20500;-70
2021/09/27 01:45:56;;;;;;;23.30;17.42;;;15.10;54.00;;;;;;5024334;28;20045;-69
2021/09/27 01:48:32;;;;;;;21.83;16.65;;;15.10;54.60;;;;;;5041224;28;20053;-70
2021/09/27 01:51:13;;;;;;;22.60;16.88;;;15.00;54.70;;;;;;5048936;28;20095;-70
2021/09/27 01:53:44;;;;;;;25.80;17.75;;;15.10;55.70;;;;;;5004920;28;20083;-70
2021/09/27 01:56:21;;;;;;;22.75;17.27;;;15.10;55.80;;;;;;5039820;28;20041;-70
2021/09/27 01:59:02;;;;;;;23.85;18.00;;;15.10;55.60;;;;;;5030473;28;20044;-70
2021/09/27 02:01:34;;;;;;;26.05;18.45;;;15.10;55.80;;;;;;5051032;28;20068;-71
2021/09/27 02:04:12;;;;;;;25.92;18.05;;;15.20;55.90;;;;;;5037557;28;20048;-71
2021/09/27 02:06:45;;;;;;;23.70;17.13;;;15.20;55.60;;;;;;5040922;28;20103;-69
2021/09/27 02:09:18;;;;;;;;;;;15.20;55.60;;;;;;5048179;28;20203;-69
2021/09/27 02:11:55;;;;;;;21.73;16.52;;;15.20;55.60;;;;;;5039510;28;19920;-69
2021/09/27 02:14:32;;;;;;;23.50;16.83;;;15.20;56.00;;;;;;5035808;28;20041;-70
2021/09/27 02:17:09;;;;;;;25.67;18.45;;;15.20;55.50;;;;;;5043784;28;20284;-70
2021/09/27 02:19:51;;;;;;;24.02;17.73;;;15.20;55.40;;;;;;5047283;28;20053;-70
2021/09/27 02:22:24;;;;;;;25.33;17.60;;;15.20;55.40;;;;;;5036119;28;20134;-70
2021/09/27 02:24:57;;;;;;;21.30;16.50;;;15.30;55.20;;;;;;5041074;28;20057;-70
2021/09/27 02:27:28;;;;;;;25.00;17.05;;;15.30;55.40;;;;;;5041602;28;20072;-70
2021/09/27 02:29:58;;;;;;;25.75;17.50;;;15.30;55.10;;;;;;5044370;28;20048;-70
2021/09/27 02:32:35;;;;;;;23.38;17.20;;;15.30;55.10;;;;;;5036438;28;20145;-70
2021/09/27 02:35:13;;;;;;;23.80;17.00;;;15.30;54.90;;;;;;5040202;28;20145;-70
2021/09/27 02:37:50;;;;;;;23.17;17.48;;;15.30;55.40;;;;;;5044440;28;20097;-70
2021/09/27 02:40:28;;;;;;;23.88;17.63;;;15.40;55.50;;;;;;5043632;28;20052;-70
2021/09/27 02:42:59;;;;;;;24.98;17.85;;;15.40;55.20;;;;;;5022909;28;20052;-70
2021/09/27 02:45:29;;;;;;;26.50;17.73;;;15.40;55.30;;;;;;5020671;28;20041;-71
2021/09/27 02:48:09;;;;;;;24.08;17.98;;;15.40;55.00;;;;;;5047494;28;20056;-70
2021/09/27 02:50:42;;;;;;;25.52;18.60;;;15.40;55.60;;;;;;5040314;28;20120;-72
2021/09/27 02:53:12;;;;;;;24.42;18.63;;;15.40;55.60;;;;;;5006282;28;20067;-70
2021/09/27 02:56:03;;;;;;;26.95;18.50;;;15.50;55.50;;;;;;5043852;28;20679;-71
2021/09/27 02:58:40;;;;;;;24.88;18.63;;;15.50;55.40;;;;;;5028992;28;20124;-70
2021/09/27 03:01:15;;;;;;;24.67;18.70;;;15.50;55.30;;;;;;5041424;28;20056;-70
2021/09/27 03:04:02;;;;;;;26.92;19.52;;;15.50;55.70;;;;;;5002052;28;20080;-70
2021/09/27 03:06:45;;;;;;;28.98;20.70;;;15.60;55.70;;;;;;5042991;28;20079;-71
2021/09/27 03:09:25;;;;;;;32.20;19.90;;;15.60;55.50;;;;;;5041900;28;20049;-70
2021/09/27 03:12:13;;;;;;;25.73;18.30;;;15.60;55.10;;;;;;5025709;28;20608;-70
2021/09/27 03:15:19;;;;;;;29.98;18.88;;;15.60;55.10;;;;;;5039311;28;20040;-70
2021/09/27 03:17:59;;;;;;;28.90;19.50;;;15.50;55.60;;;;;;5036566;28;20053;-70
2021/09/27 03:20:41;;;;;;;28.40;19.45;;;15.60;55.50;;;;;;5038094;28;20084;-69
2021/09/27 03:23:23;;;;;;;27.13;20.17;;;15.60;55.10;;;;;;5032031;28;20515;-70
2021/09/27 03:26:01;;;;;;;30.50;20.20;;;15.60;55.00;;;;;;5012406;28;20131;-70
2021/09/27 03:28:39;;;;;;;31.08;19.95;;;15.60;55.10;;;;;;5033576;28;20119;-70
2021/09/27 03:31:20;;;;;;;27.30;19.70;;;15.60;54.50;;;;;;5042524;28;20065;-70
2021/09/27 03:34:00;;;;;;;27.83;19.20;;;15.60;54.50;;;;;;5040676;28;20072;-71
2021/09/27 03:37:14;;;;;;;28.02;18.90;;;15.70;54.50;;;;;;5037026;28;20037;-70
2021/09/27 03:39:57;;;;;;;24.48;17.65;;;15.60;54.50;;;;;;4961256;28;20086;-71
2021/09/27 03:42:35;;;;;;;28.42;17.92;;;15.60;54.40;;;;;;4960397;28;20149;-69
2021/09/27 03:45:10;;;;;;;26.35;17.85;;;15.70;54.50;;;;;;5012716;28;20136;-70
2021/09/27 03:47:47;;;;;;;25.20;19.23;;;15.60;54.40;;;;;;5027706;28;20044;-70
2021/09/27 03:50:25;;;;;;;26.75;18.65;;;15.60;54.50;;;;;;5038885;28;20831;-70
2021/09/27 03:52:57;;;;;;;24.27;18.65;;;15.70;54.50;;;;;;5038676;28;20056;-68
2021/09/27 03:55:33;;;;;;;30.08;18.50;;;15.70;53.90;;;;;;5034508;28;20045;-70
2021/09/27 03:58:10;;;;;;;23.58;18.08;;;15.70;53.50;;;;;;5040742;28;20504;-68
2021/09/27 04:00:49;;;;;;;27.08;18.23;;;15.70;53.30;;;;;;5038837;28;20041;-68
2021/09/27 04:03:36;;;;;;;26.30;18.15;;;15.70;53.50;;;;;;5036255;28;20480;-70
2021/09/27 04:06:18;;;;;;;24.88;17.90;;;15.70;54.20;;;;;;5041892;28;20162;-70
2021/09/27 04:08:57;;;;;;;24.67;17.92;;;15.60;54.40;;;;;;5041868;28;20097;-69
2021/09/27 04:11:35;;;;;;;26.98;18.83;;;15.60;54.50;;;;;;5041054;28;20040;-69
2021/09/27 04:14:20;;;;;;;28.23;18.52;;;15.60;54.50;;;;;;5028771;28;20076;-69
2021/09/27 04:17:05;;;;;;;27.23;19.10;;;15.50;54.50;;;;;;5035854;28;20037;-69
2021/09/27 04:19:42;;;;;;;23.63;17.98;;;15.50;55.00;;;;;;5040197;28;20083;-70
2021/09/27 04:22:14;;;;;;;28.30;19.50;;;15.50;54.70;;;;;;5042264;28;20049;-70
2021/09/27 04:25:03;;;;;;;25.33;17.30;;;15.50;54.30;;;;;;5038278;28;20045;-70
2021/09/27 04:28:14;;;;;;;25.65;19.02;;;15.50;54.40;;;;;;5036821;28;20037;-70
2021/09/27 04:31:03;;;;;;;23.95;17.63;;;15.40;54.80;;;;;;5035293;28;20041;-70
2021/09/27 04:33:58;;;;;;;26.77;17.92;;;15.40;54.50;;;;;;5027867;28;20131;-70
2021/09/27 04:36:33;;;;;;;26.48;17.55;;;15.40;54.40;;;;;;5038697;28;20033;-70
2021/09/27 04:39:10;;;;;;;24.08;17.50;;;15.30;54.20;;;;;;5039544;28;20037;-69
2021/09/27 04:42:00;;;;;;;25.60;18.35;;;15.30;54.30;;;;;;5037066;28;20068;-70
2021/09/27 04:44:45;;;;;;;25.23;17.60;;;15.30;54.20;;;;;;5017562;28;20099;-70
2021/09/27 04:47:17;;;;;;;27.38;18.50;;;15.20;54.50;;;;;;5037410;28;20136;-69
2021/09/27 04:50:04;;;;;;;23.20;17.45;;;15.20;54.70;;;;;;5039684;28;20151;-70
2021/09/27 04:52:43;;;;;;;23.02;17.08;;;15.20;54.70;;;;;;5032335;28;20313;-69
2021/09/27 04:55:37;;;;;;;29.08;18.30;;;15.20;54.80;;;;;;5021421;28;20044;-70
2021/09/27 04:58:22;;;;;;;25.55;17.23;;;15.20;54.90;;;;;;5024642;28;20042;-69
2021/09/27 05:01:12;;;;;;;25.33;16.90;;;15.10;55.10;;;;;;5040873;28;20136;-70
2021/09/27 05:03:59;;;;;;;28.42;16.23;;;15.00;55.40;;;;;;5015157;28;20617;-69
2021/09/27 05:07:04;;;;;;;24.35;17.25;;;15.00;55.50;;;;;;5034753;28;20100;-70
2021/09/27 05:09:44;;;;;;;25.70;17.23;;;15.00;55.50;;;;;;5031872;28;20124;-71
2021/09/27 05:12:36;;;;;;;31.02;17.83;;;15.00;55.60;;;;;;5032072;28;20050;-70
2021/09/27 05:15:29;;;;;;;24.52;18.05;;;15.00;55.40;;;;;;5008756;28;20049;-69
2021/09/27 05:18:43;;;;;;;26.20;17.30;;;15.00;55.30;;;;;;5042822;28;20501;-74
2021/09/27 05:21:21;;;;;;;;;;;15.00;55.40;;;;;;5015444;28;20057;-70
2021/09/27 05:24:08;;;;;;;23.50;16.92;;;15.00;55.30;;;;;;5021918;28;19990;-69
2021/09/27 05:26:48;;;;;;;24.27;17.00;;;14.90;55.20;;;;;;5016661;28;20093;-70
2021/09/27 05:29:37;;;;;;;24.83;17.02;;;15.00;55.40;;;;;;5013819;28;20045;-71
2021/09/27 05:32:33;;;;;;;24.48;16.20;;;15.00;55.30;;;;;;5039126;28;20045;-69
2021/09/27 05:35:27;;;;;;;24.02;16.98;;;15.00;55.10;;;;;;5010904;28;20065;-70
2021/09/27 05:38:05;;;;;;;24.48;16.65;;;15.00;55.10;;;;;;5032615;28;20075;-70
2021/09/27 05:40:47;;;;;;;24.42;17.52;;;15.10;54.90;;;;;;5037777;28;20048;-71
2021/09/27 05:43:31;;;;;;;24.67;16.58;;;15.20;54.10;;;;;;5034325;28;20059;-70
2021/09/27 05:46:17;;;;;;;24.00;17.23;;;15.20;54.10;;;;;;5023258;28;20061;-70
2021/09/27 05:48:52;;;;;;;26.88;17.15;;;15.20;52.90;;;;;;5020519;28;20111;-70
2021/09/27 05:51:32;;;;;;;25.63;17.98;;;15.30;52.70;;;;;;5036908;28;20064;-72
2021/09/27 05:54:09;;;;;;;29.63;16.20;;;15.40;52.00;;;;;;5016100;28;20045;-70
2021/09/27 05:56:49;;;;;;;24.98;16.92;;;15.40;51.30;;;;;;5030328;28;20041;-68
2021/09/27 05:59:23;;;;;;;23.58;17.25;;;15.50;50.50;;;;;;5032136;28;20053;-69
2021/09/27 06:01:59;;;;;;;20.73;16.35;;;15.50;50.30;;;;;;5035447;28;20049;-70
2021/09/27 06:04:45;;;;;;;21.05;15.85;;;15.60;50.30;;;;;;5039301;28;20091;-69
2021/09/27 06:07:20;;;;;;;21.35;16.83;;;15.60;49.20;;;;;;5041914;28;20436;-70
2021/09/27 06:09:55;;;;;;;;;;;15.80;49.00;;;;;;5042316;28;20120;-71
2021/09/27 06:12:33;;;;;;;24.40;15.90;;;15.80;47.80;;;;;;5035934;28;20024;-70
2021/09/27 06:15:05;;;;;;;22.65;15.65;;;15.90;47.80;;;;;;5040263;28;20430;-69
2021/09/27 06:17:45;;;;;;;21.73;15.70;;;16.00;46.60;;;;;;5045176;28;20457;-70
2021/09/27 06:20:18;;;;;;;21.33;15.85;;;16.10;45.10;;;;;;5040981;28;20501;-70
2021/09/27 06:23:03;;;;;;;23.08;15.02;;;16.10;43.50;;;;;;5036942;28;20127;-69
2021/09/27 06:25:39;;;;;;;23.38;15.15;;;16.10;42.80;;;;;;5043783;28;20144;-70
2021/09/27 06:28:16;;;;;;;25.02;15.82;;;16.30;42.70;;;;;;5041197;28;20465;-70
2021/09/27 06:30:55;;;;;;;20.43;16.03;;;16.40;41.60;;;;;;5039398;28;20120;-70
2021/09/27 06:33:29;;;;;;;33.42;16.75;;;16.40;41.20;;;;;;5037353;28;20675;-70
2021/09/27 06:36:06;;;;;;;23.30;15.93;;;16.50;40.60;;;;;;5039572;28;20080;-70
2021/09/27 06:38:39;;;;;;;24.88;15.73;;;16.50;39.90;;;;;;5043837;28;20500;-71
2021/09/27 06:41:20;;;;;;;24.05;16.55;;;16.50;40.30;;;;;;5021787;28;20496;-70
2021/09/27 06:43:51;;;;;;;23.92;14.95;;;16.60;40.40;;;;;;5039524;28;20100;-70
2021/09/27 06:46:20;;;;;;;25.20;16.38;;;16.60;38.60;;;;;;5048952;28;21929;-70
2021/09/27 06:48:50;;;;;;;22.77;15.82;;;16.50;40.10;;;;;;5048668;28;20045;-70
2021/09/27 06:51:18;;;;;;;27.92;17.17;;;16.40;41.20;;;;;;5038655;28;20103;-69
2021/09/27 06:53:50;;;;;;;21.92;15.85;;;16.30;41.20;;;;;;5034757;28;20165;-70
2021/09/27 06:56:18;;;;;;;25.50;15.88;;;16.20;41.40;;;;;;5022950;28;20068;-71
2021/09/27 06:58:47;;;;;;;20.17;15.45;;;16.30;42.60;;;;;;5025321;28;20102;-69
2021/09/27 07:01:15;;;;;;;26.02;16.25;;;16.30;42.60;;;;;;5037186;28;20056;-70
2021/09/27 07:03:43;;;;;;;23.67;15.52;;;16.40;41.50;;;;;;5037771;28;20045;-69
2021/09/27 07:06:16;;;;;;;23.67;15.23;;;16.40;41.10;;;;;;5024533;28;20044;-69
2021/09/27 07:08:45;;;;;;;22.83;16.30;;;16.50;40.60;;;;;;5002034;28;20137;-69
2021/09/27 07:11:16;;;;;;;22.10;15.60;;;16.60;39.00;;;;;;5041891;28;20053;-69
2021/09/27 07:13:44;;;;;;;22.08;15.38;;;16.80;38.00;;;;;;5038552;28;20105;-70
2021/09/27 07:16:17;;;;;;;20.13;15.93;;;16.80;36.60;;;;;;5018812;28;20037;-70
2021/09/27 07:19:05;;;;;;;21.58;14.77;;;16.80;37.80;;;;;;5022991;28;20048;-70
2021/09/27 07:21:38;;;;;;;24.90;15.73;;;16.90;36.40;;;;;;5045397;28;20069;-70
2021/09/27 07:24:08;;;;;;;22.50;15.02;;;17.00;35.80;;;;;;5038457;28;20134;-71
2021/09/27 07:26:41;;;;;;;25.93;14.90;;;17.20;34.80;;;;;;5020284;28;20424;-70
2021/09/27 07:29:09;;;;;;;20.80;14.82;;;17.10;32.50;;;;;;5044185;28;20323;-70
2021/09/27 07:31:38;;;;;;;16.70;13.60;;;17.10;31.80;;;;;;5043638;28;20132;-71
2021/09/27 07:34:08;;;;;;;19.65;14.57;;;17.10;32.20;;;;;;5032537;28;20040;-71
2021/09/27 07:36:38;;;;;;;20.45;14.35;;;17.20;31.40;;;;;;5038586;28;20045;-71
2021/09/27 07:39:09;;;;;;;20.00;15.50;;;17.40;30.60;;;;;;5045793;28;20426;-70
2021/09/27 07:41:42;;;;;;;24.95;17.60;;;17.50;28.30;;;;;;5038772;28;20033;-69
2021/09/27 07:44:12;;;;;;;22.35;13.70;;;17.60;28.20;;;;;;5033085;28;20136;-70
2021/09/27 07:46:40;;;;;;;19.40;13.80;;;17.80;27.40;;;;;;5041152;28;20068;-71
2021/09/27 07:49:13;;;;;;;15.68;12.77;;;17.90;26.10;;;;;;5041139;28;20106;-69
2021/09/27 07:51:44;;;;;;;18.33;13.63;;;18.00;23.80;;;;;;5037603;28;20051;-70
2021/09/27 07:54:16;;;;;;;17.38;12.65;;;17.90;23.60;;;;;;5033751;28;20049;-71
2021/09/27 07:56:47;;;;;;;16.38;12.75;;;18.00;24.10;;;;;;5045782;28;20075;-70
2021/09/27 07:59:15;;;;;;;20.65;13.15;;;18.20;23.10;;;;;;5038752;28;20049;-70
2021/09/27 08:01:44;;;;;;;18.88;13.05;;;18.40;21.90;;;;;;5039992;28;20520;-71
2021/09/27 08:04:15;;;;;;;16.70;12.90;;;18.40;20.60;;;;;;5036021;28;20590;-70
2021/09/27 08:06:44;;;;;;;19.02;12.57;;;18.50;19.40;;;;;;5053796;28;20066;-70
2021/09/27 08:09:12;;;;;;;17.83;12.27;;;18.40;20.70;;;;;;5031696;28;20080;-70
2021/09/27 08:11:48;;;;;;;17.27;11.93;;;18.60;19.40;;;;;;5003440;28;20053;-70
2021/09/27 08:14:18;;;;;;;15.88;11.60;;;18.80;17.90;;;;;;5039721;28;20049;-69
2021/09/27 08:16:47;;;;;;;16.92;11.45;;;19.10;16.90;;;;;;5036178;28;20144;-70
2021/09/27 08:19:18;;;;;;;18.90;11.77;;;19.10;15.40;;;;;;5039266;28;20128;-71
2021/09/27 08:21:46;;;;;;;16.23;10.73;;;19.10;15.20;;;;;;5039288;28;20107;-71
2021/09/27 08:24:14;;;;;;;14.35;11.80;;;19.10;14.80;;;;;;5040985;28;20132;-71
2021/09/27 08:26:42;;;;;;;12.82;9.82;;;19.20;14.10;;;;;;5039004;28;20118;-71
2021/09/27 08:29:14;;;;;;;11.45;9.55;;;19.50;13.00;;;;;;5041369;28;20255;-70
2021/09/27 08:31:46;;;;;;;12.43;8.90;;;19.40;11.50;;;;;;5046437;28;20334;-70
2021/09/27 08:34:16;;;;;;;12.13;9.05;;;19.50;11.50;;;;;;5036952;28;20515;-70
2021/09/27 08:36:51;;;;;;;16.48;12.15;;;19.70;10.50;;;;;;5035850;28;20069;-71
2021/09/27 08:39:22;;;;;;;8.40;7.07;;;19.90;9.20;;;;;;5041547;28;20073;-71
2021/09/27 08:42:05;;;;;;;8.63;6.10;;;20.10;6.80;;;;;;5027492;28;20076;-71
2021/09/27 08:45:01;;;;;;;10.25;6.63;;;20.10;6.10;;;;;;5013267;28;20047;-71
2021/09/27 08:47:38;;;;;;;9.50;6.53;;;20.10;5.70;;;;;;5035032;28;20114;-70
2021/09/27 08:50:21;;;;;;;8.98;6.75;;;20.40;5.20;;;;;;5024184;28;20045;-70
2021/09/27 08:52:49;;;;;;;8.57;6.15;;;20.50;3.70;;;;;;5037287;28;20613;-70
2021/09/27 08:55:21;;;;;;;8.05;5.97;;;20.50;3.50;;;;;;5019517;28;20054;-71
2021/09/27 08:58:00;;;;;;;7.28;4.72;;;20.70;2.90;;;;;;5034887;28;20044;-70
2021/09/27 09:00:48;;;;;;;5.57;4.82;;;20.00;1.00;;;;;;5034393;28;20037;-71
2021/09/27 09:03:27;;;;;;;9.93;5.68;;;20.00;2.80;;;;;;5022709;28;20127;-71
2021/09/27 09:06:03;;;;;;;7.45;5.90;;;20.60;2.00;;;;;;5040107;28;20128;-71
2021/09/27 09:08:44;;;;;;;7.07;3.60;;;20.40;1.10;;;;;;5018412;28;20041;-70
2021/09/27 09:11:19;;;;;;;5.72;3.85;;;20.50;1.00;;;;;;5035342;28;20591;-70
2021/09/27 09:13:55;;;;;;;7.63;4.13;;;20.60;1.00;;;;;;5037198;28;20049;-70
2021/09/27 09:16:28;;;;;;;5.82;4.00;;;21.00;1.00;;;;;;5028210;28;20104;-71
2021/09/27 09:19:00;;;;;;;4.38;3.10;;;21.20;1.00;;;;;;5039963;28;20062;-70
2021/09/27 09:21:37;;;;;;;4.72;3.40;;;20.80;1.00;;;;;;5040601;28;20055;-70
2021/09/27 09:24:12;;;;;;;8.95;3.38;;;20.90;1.00;;;;;;5034806;28;20076;-69
2021/09/27 09:26:46;;;;;;;4.45;3.53;;;20.90;1.00;;;;;;5017978;28;20093;-69
2021/09/27 09:29:24;;;;;;;5.80;4.00;;;21.00;1.00;;;;;;5033111;28;20047;-69
2021/09/27 09:31:58;;;;;;;5.63;3.70;;;21.20;1.00;;;;;;5041508;28;20049;-69
2021/09/27 09:34:31;;;;;;;5.25;3.80;;;21.30;1.00;;;;;;5035908;28;20139;-69
2021/09/27 09:37:05;;;;;;;3.45;3.15;;;21.30;1.00;;;;;;5019112;28;20119;-70
2021/09/27 09:39:36;;;;;;;4.97;3.40;;;21.40;1.00;;;;;;5022187;28;20111;-70
2021/09/27 09:42:27;;;;;;;5.82;3.33;;;21.60;1.00;;;;;;5028861;28;20495;-70
2021/09/27 09:44:55;;;;;;;3.95;3.13;;;21.60;1.00;;;;;;5034956;28;20112;-69
2021/09/27 09:47:30;;;;;;;5.65;3.30;;;21.80;1.00;;;;;;5039463;28;20152;-70
2021/09/27 09:50:02;;;;;;;6.68;3.10;;;21.70;1.00;;;;;;5040960;28;20051;-70
2021/09/27 09:52:36;;;;;;;5.63;2.80;;;21.50;1.00;;;;;;5037217;28;20132;-70
2021/09/27 09:55:17;;;;;;;4.70;2.83;;;22.10;1.00;;;;;;5019696;28;20040;-70
2021/09/27 09:57:54;;;;;;;3.97;2.95;;;22.00;1.00;;;;;;5033919;28;20080;-69
2021/09/27 10:00:46;;;;;;;3.97;3.30;;;22.20;1.00;;;;;;5024985;28;20117;-70
2021/09/27 10:03:20;;;;;;;3.72;3.20;;;22.10;1.00;;;;;;5035389;28;20755;-70
2021/09/27 10:05:52;;;;;;;5.45;3.33;;;22.40;1.00;;;;;;5038120;28;20066;-70
2021/09/27 10:08:23;;;;;;;3.70;3.40;;;22.30;1.00;;;;;;5042110;28;20140;-70
2021/09/27 10:10:58;;;;;;;8.27;3.00;;;22.20;1.00;;;;;;5039304;28;20144;-70
2021/09/27 10:13:41;;;;;;;5.03;3.03;;;22.30;1.00;;;;;;5037011;28;20132;-70
2021/09/27 10:16:15;;;;;;;3.83;3.20;;;22.60;1.00;;;;;;5036031;28;20083;-70
2021/09/27 10:18:46;;;;;;;3.83;2.78;;;22.50;1.00;;;;;;5037054;28;20037;-70
2021/09/27 10:21:33;;;;;;;5.72;3.20;;;22.60;1.00;;;;;;5037051;28;20064;-69
2021/09/27 10:24:16;;;;;;;3.90;2.58;;;22.80;1.00;;;;;;5039350;28;20048;-69
2021/09/27 10:26:51;;;;;;;2.83;2.60;;;22.60;1.00;;;;;;5038312;28;20064;-69
2021/09/27 10:29:24;;;;;;;5.00;2.85;;;22.80;1.00;;;;;;5032449;28;20718;-70
2021/09/27 10:31:56;;;;;;;3.15;2.85;;;22.50;1.00;;;;;;5020852;28;20068;-69
2021/09/27 10:34:30;;;;;;;3.67;2.47;;;22.90;1.00;;;;;;5031891;28;20048;-70
2021/09/27 10:37:02;;;;;;;;;;;23.10;1.00;;;;;;5035275;28;20056;-69
2021/09/27 10:39:34;;;;;;;4.13;2.55;;;22.30;1.00;;;;;;5028781;28;19944;-70
2021/09/27 10:42:05;;;;;;;4.57;2.85;;;22.40;1.00;;;;;;5033363;28;20104;-69
2021/09/27 10:44:43;;;;;;;3.95;2.80;;;22.60;1.00;;;;;;5031909;28;20132;-70
2021/09/27 10:47:19;;;;;;;6.28;3.03;;;22.30;1.00;;;;;;5038808;28;20041;-70
2021/09/27 10:49:56;;;;;;;4.28;2.90;;;22.40;1.00;;;;;;5030882;28;20064;-70
2021/09/27 10:52:41;;;;;;;3.65;2.78;;;22.90;1.00;;;;;;5031282;28;20071;-70
2021/09/27 10:55:16;;;;;;;8.25;5.13;;;23.40;1.00;;;;;;5028505;28;20048;-70
2021/09/27 10:57:55;;;;;;;7.07;3.20;;;23.30;1.00;;;;;;5035135;28;20083;-71
2021/09/27 11:00:36;;;;;;;4.35;2.63;;;23.20;1.00;;;;;;5032107;28;20045;-70
2021/09/27 11:03:12;;;;;;;4.25;2.63;;;23.50;1.00;;;;;;5011268;28;20053;-70
2021/09/27 11:05:54;;;;;;;5.63;2.90;;;23.60;1.00;;;;;;5028257;28;20053;-70
2021/09/27 11:08:50;;;;;;;3.55;2.42;;;23.90;1.00;;;;;;5031764;28;20111;-70
2021/09/27 11:11:36;;;;;;;4.32;2.33;;;23.80;1.00;;;;;;5013482;28;20068;-69
2021/09/27 11:14:20;;;;;;;3.90;2.10;;;24.00;1.00;;;;;;5029317;28;20053;-70
2021/09/27 11:16:56;;;;;;;3.33;2.63;;;23.50;1.00;;;;;;5002582;28;20052;-70
2021/09/27 11:19:39;;;;;;;4.53;2.53;;;23.70;1.00;;;;;;5032227;28;20045;-71
2021/09/27 11:22:40;;;;;;;3.00;2.22;;;23.80;1.00;;;;;;5031281;28;20055;-70
2021/09/27 11:25:35;;;;;;;4.53;2.13;;;23.90;1.00;;;;;;5000227;28;20160;-69
2021/09/27 11:28:14;;;;;;;4.20;3.00;;;23.70;1.00;;;;;;5036743;28;20115;-71
2021/09/27 11:30:45;;;;;;;2.75;2.50;;;23.70;1.00;;;;;;5028189;28;20136;-70
2021/09/27 11:33:45;;;;;;;4.13;2.53;;;23.80;1.00;;;;;;5029799;28;20127;-71
2021/09/27 11:36:35;;;;;;;2.72;2.00;;;24.10;1.00;;;;;;5034779;28;20477;-70
2021/09/27 11:39:22;;;;;;;2.17;1.98;;;24.20;1.00;;;;;;5032323;28;20049;-70
2021/09/27 11:42:26;;;;;;;2.15;1.80;;;24.30;1.00;;;;;;5030392;28;20049;-70
2021/09/27 11:45:11;;;;;;;4.82;2.33;;;24.20;1.00;;;;;;5003058;28;20423;-71
2021/09/27 11:47:58;;;;;;;2.22;1.75;;;23.90;1.00;;;;;;5007387;28;20049;-70
2021/09/27 11:50:55;;;;;;;5.38;2.45;;;24.30;1.00;;;;;;5026349;28;20153;-70
2021/09/27 11:53:53;;;;;;;2.42;1.83;;;24.10;1.00;;;;;;5037922;28;20568;-71
2021/09/27 11:56:30;;;;;;;4.75;2.47;;;24.30;1.00;;;;;;5030169;28;20441;-70
2021/09/27 11:59:07;;;;;;;3.05;1.80;;;23.80;1.00;;;;;;5032199;28;20041;-71
2021/09/27 12:01:44;;;;;;;8.57;2.42;;;23.20;1.00;;;;;;5015313;28;20054;-71
2021/09/27 12:04:25;;;;;;;3.33;1.92;;;23.20;1.00;;;;;;5030007;28;20124;-71
2021/09/27 12:07:02;;;;;;;2.83;2.25;;;23.50;1.00;;;;;;5010053;28;20106;-69
2021/09/27 12:09:37;;;;;;;3.88;2.50;;;22.80;1.00;;;;;;5027100;28;20401;-69
2021/09/27 12:12:08;;;;;;;4.25;2.67;;;22.40;1.00;;;;;;5014286;28;20128;-70
2021/09/27 12:14:41;;;;;;;3.35;2.33;;;22.50;1.00;;;;;;5029733;28;20049;-70
2021/09/27 12:17:21;;;;;;;2.92;2.40;;;22.60;1.00;;;;;;5036120;28;20048;-70
2021/09/27 12:19:52;;;;;;;3.15;2.30;;;22.50;1.00;;;;;;5032706;28;20044;-70
2021/09/27 12:22:30;;;;;;;4.03;2.88;;;22.50;1.00;;;;;;5027811;28;20048;-69
2021/09/27 12:25:07;;;;;;;5.10;2.72;;;22.80;1.00;;;;;;5023787;28;20049;-71
2021/09/27 12:27:48;;;;;;;5.82;2.33;;;22.60;1.00;;;;;;5026698;28;20133;-69
2021/09/27 12:30:17;;;;;;;4.38;2.60;;;22.90;1.00;;;;;;5025205;28;20501;-66
2021/09/27 12:32:58;;;;;;;4.07;2.45;;;22.80;1.00;;;;;;5023761;28;20440;-66
2021/09/27 12:35:35;;;;;;;4.22;2.60;;;22.80;1.00;;;;;;5023265;28;20072;-66
2021/09/27 12:38:07;;;;;;;3.63;2.50;;;22.80;1.00;;;;;;5027793;28;20063;-65
2021/09/27 12:40:42;;;;;;;4.63;2.80;;;23.00;1.00;;;;;;5012831;28;20148;-66
2021/09/27 12:43:15;;;;;;;;;;;23.10;1.00;;;;;;5030095;28;20140;-65
2021/09/27 12:45:49;;;;;;;3.58;2.33;;;23.00;1.00;;;;;;5029648;28;19928;-65
2021/09/27 12:48:23;;;;;;;4.43;2.60;;;22.90;1.00;;;;;;5029436;28;20060;-66
2021/09/27 12:50:56;;;;;;;3.10;2.42;;;22.90;1.00;;;;;;5025639;28;20059;-65
2021/09/27 12:53:34;;;;;;;3.40;2.42;;;22.80;1.00;;;;;;5031904;28;20052;-65
2021/09/27 12:56:05;;;;;;;4.00;2.20;;;22.70;1.00;;;;;;5030563;28;20414;-66
2021/09/27 12:58:40;;;;;;;;;;;22.50;1.00;;;;;;5032125;28;20054;-66
2021/09/27 13:01:15;;;;;;;2.42;2.03;;;22.80;1.00;;;;;;5035412;28;19943;-64
2021/09/27 13:03:50;;;;;;;3.75;2.50;;;22.50;1.00;;;;;;5029267;28;20137;-65
2021/09/27 13:06:27;;;;;;;8.43;2.70;;;22.40;1.00;;;;;;5031210;28;20139;-67
2021/09/27 13:09:08;;;;;;;3.92;2.30;;;22.50;1.00;;;;;;5015901;28;21068;-66
2021/09/27 13:11:40;;;;;;;4.32;2.60;;;22.40;1.00;;;;;;5031790;28;20033;-66
2021/09/27 13:14:17;;;;;;;4.90;2.40;;;22.20;1.00;;;;;;5031832;28;20419;-65
2021/09/27 13:16:48;;;;;;;3.10;2.60;;;22.10;1.00;;;;;;5033543;28;20511;-66
2021/09/27 13:19:39;;;;;;;5.05;2.58;;;22.00;1.00;;;;;;5040087;28;20095;-65
2021/09/27 13:22:33;;;;;;;3.03;2.70;;;22.00;1.00;;;;;;5035486;28;20120;-65
2021/09/27 13:25:09;;;;;;;3.70;2.33;;;21.90;1.00;;;;;;5034326;28;20049;-65
2021/09/27 13:27:50;;;;;;;4.38;2.85;;;22.10;1.00;;;;;;5032898;28;20084;-67
2021/09/27 13:30:24;;;;;;;5.60;2.65;;;22.30;1.00;;;;;;5032300;28;20428;-66
2021/09/27 13:33:00;;;;;;;2.67;2.45;;;22.60;1.00;;;;;;5039684;28;20041;-66
2021/09/27 13:35:38;;;;;;;3.03;2.55;;;22.30;1.00;;;;;;5032518;28;20041;-65